Time;durP1;ratioP1;P1;durP2;ratioP2;P2;SDS_P1;SDS_P2;PMS_P1;PMS_P2;Temp;Humidity;BMP_temperature;BMP_pressure;BME280_temperature;BME280_humidity;BME280_pressure;Samples;Min_cycle;Max_cycle;Signal;HPM_P1;HPM_P2
2023/04/09 00:01:09;;;;;;;57.53;41.40;;;;;;;;;;5030847;28;20037;-78
2023/04/09 00:03:37;;;;;;;53.88;39.17;;;;;;;;;;5033751;28;20036;-76
2023/04/09 00:06:03;;;;;;;56.30;39.95;;;;;;;;;;5034459;28;20020;-77
2023/04/09 00:08:29;;;;;;;53.63;40.10;;;;;;;;;;5030731;28;20024;-76
2023/04/09 00:10:57;;;;;;;55.63;39.28;;;;;;;;;;5033112;28;20028;-77
2023/04/09 00:13:23;;;;;;;58.58;40.38;;;;;;;;;;5033281;28;20093;-76
2023/04/09 00:15:49;;;;;;;58.00;38.60;;;;;;;;;;5033277;28;20021;-76
2023/04/09 00:18:15;;;;;;;52.35;35.72;;;;;;;;;;5033899;28;20068;-76
2023/04/09 00:20:42;;;;;;;52.90;36.45;;;;;;;;;;5034900;28;20479;-77
2023/04/09 00:23:08;;;;;;;54.88;37.92;;;;;;;;;;5036455;28;20389;-78
2023/04/09 00:25:34;;;;;;;51.03;36.97;;;;;;;;;;5033924;28;20036;-76
2023/04/09 00:28:00;;;;;;;49.67;36.38;;;;;;;;;;5033853;28;20031;-76
2023/04/09 00:30:28;;;;;;;52.90;35.35;;;;;;;;;;5026781;28;20041;-76
2023/04/09 00:32:54;;;;;;;51.67;36.38;;;;;;;;;;5033166;28;20138;-75
2023/04/09 00:35:21;;;;;;;47.60;34.22;;;;;;;;;;5034281;28;20102;-77
2023/04/09 00:37:47;;;;;;;51.83;34.10;;;;;;;;;;5033130;28;20036;-76
2023/04/09 00:40:13;;;;;;;48.22;34.70;;;;;;;;;;5035556;28;20024;-76
2023/04/09 00:42:40;;;;;;;51.40;35.10;;;;;;;;;;5042367;28;20106;-76
2023/04/09 00:45:08;;;;;;;57.78;33.75;;;;;;;;;;5028693;28;20535;-76
2023/04/09 00:47:34;;;;;;;47.22;33.40;;;;;;;;;;5027160;28;20136;-76
2023/04/09 00:50:01;;;;;;;48.20;33.63;;;;;;;;;;5030461;28;20036;-76
2023/04/09 00:52:32;;;;;;;47.95;32.65;;;;;;;;;;5032028;28;20021;-76
2023/04/09 00:55:03;;;;;;;48.70;32.65;;;;;;;;;;5028527;28;20121;-76
2023/04/09 00:57:29;;;;;;;49.65;33.50;;;;;;;;;;5028915;28;20135;-76
2023/04/09 00:59:56;;;;;;;48.80;34.10;;;;;;;;;;5010160;28;20466;-76
2023/04/09 01:02:22;;;;;;;49.17;33.03;;;;;;;;;;5004716;28;20053;-76
2023/04/09 01:04:48;;;;;;;54.05;36.22;;;;;;;;;;5015653;28;20036;-76
2023/04/09 01:07:18;;;;;;;56.42;37.08;;;;;;;;;;5011157;28;20083;-77
2023/04/09 01:09:51;;;;;;;60.75;37.03;;;;;;;;;;5012152;28;20044;-76
2023/04/09 01:12:32;;;;;;;61.83;40.03;;;;;;;;;;5010091;28;20025;-76
2023/04/09 01:15:03;;;;;;;56.17;37.33;;;;;;;;;;5005169;28;20049;-76
2023/04/09 01:17:46;;;;;;;61.42;38.53;;;;;;;;;;5013571;28;20029;-75
2023/04/09 01:20:14;;;;;;;67.93;40.70;;;;;;;;;;5015691;28;20029;-76
2023/04/09 01:22:48;;;;;;;67.00;38.75;;;;;;;;;;5013321;28;20077;-76
2023/04/09 01:25:33;;;;;;;70.68;39.83;;;;;;;;;;5013137;28;20152;-75
2023/04/09 01:28:17;;;;;;;65.35;41.22;;;;;;;;;;5001768;28;20484;-76
2023/04/09 01:30:48;;;;;;;62.33;40.17;;;;;;;;;;5013803;28;20044;-75
2023/04/09 01:33:15;;;;;;;69.40;41.97;;;;;;;;;;5025546;28;20025;-75
2023/04/09 01:35:43;;;;;;;68.72;43.97;;;;;;;;;;5010264;28;20025;-75
2023/04/09 01:38:10;;;;;;;75.47;42.15;;;;;;;;;;5011131;28;20029;-76
2023/04/09 01:40:37;;;;;;;74.25;42.75;;;;;;;;;;5012399;28;20382;-75
2023/04/09 01:43:03;;;;;;;73.10;44.78;;;;;;;;;;5023647;28;20462;-75
2023/04/09 01:45:29;;;;;;;74.70;46.22;;;;;;;;;;5007420;28;20025;-75
2023/04/09 01:47:56;;;;;;;68.63;40.85;;;;;;;;;;5010528;28;20390;-75
2023/04/09 01:50:22;;;;;;;73.32;45.55;;;;;;;;;;5016489;28;20025;-75
2023/04/09 01:52:48;;;;;;;75.50;44.97;;;;;;;;;;5012121;28;20063;-77
2023/04/09 01:55:14;;;;;;;71.95;43.28;;;;;;;;;;5011329;28;20882;-76
2023/04/09 01:57:41;;;;;;;77.53;44.15;;;;;;;;;;5010959;28;20053;-76
2023/04/09 02:00:08;;;;;;;75.70;43.75;;;;;;;;;;5005993;28;20509;-77
2023/04/09 02:02:42;;;;;;;74.15;45.55;;;;;;;;;;5016070;28;20829;-75
2023/04/09 02:05:10;;;;;;;79.03;45.63;;;;;;;;;;5010250;28;20030;-76
2023/04/09 02:07:44;;;;;;;74.82;44.33;;;;;;;;;;5013158;28;20029;-76
2023/04/09 02:10:12;;;;;;;77.85;45.80;;;;;;;;;;5010883;28;20390;-77
2023/04/09 02:12:40;;;;;;;74.85;44.28;;;;;;;;;;5008717;28;20116;-76
2023/04/09 02:15:07;;;;;;;77.35;44.67;;;;;;;;;;5009264;28;20109;-76
2023/04/09 02:17:33;;;;;;;81.03;45.38;;;;;;;;;;5012310;28;20033;-75
2023/04/09 02:19:59;;;;;;;77.38;47.17;;;;;;;;;;5010136;28;20021;-76
2023/04/09 02:22:25;;;;;;;82.07;44.53;;;;;;;;;;5013058;28;20031;-76
2023/04/09 02:24:51;;;;;;;77.90;44.17;;;;;;;;;;5007937;28;20032;-76
2023/04/09 02:27:17;;;;;;;77.90;44.08;;;;;;;;;;5016541;28;20032;-75
2023/04/09 02:29:43;;;;;;;72.78;42.42;;;;;;;;;;5008105;28;20037;-76
2023/04/09 02:32:09;;;;;;;82.50;44.33;;;;;;;;;;5009319;28;20378;-76
2023/04/09 02:34:35;;;;;;;73.60;41.70;;;;;;;;;;5009867;28;20060;-76
2023/04/09 02:37:01;;;;;;;76.53;42.05;;;;;;;;;;5007412;28;20026;-76
2023/04/09 02:39:27;;;;;;;80.82;44.75;;;;;;;;;;5011358;28;20033;-77
2023/04/09 02:41:53;;;;;;;75.55;44.13;;;;;;;;;;5012667;28;20111;-75
2023/04/09 02:44:19;;;;;;;71.05;41.55;;;;;;;;;;5012958;28;20025;-75
2023/04/09 02:46:47;;;;;;;74.85;41.17;;;;;;;;;;5025961;28;20104;-76
2023/04/09 02:49:13;;;;;;;74.65;41.05;;;;;;;;;;5014640;28;20025;-76
2023/04/09 02:51:39;;;;;;;68.18;39.45;;;;;;;;;;5012422;28;20033;-76
2023/04/09 02:54:05;;;;;;;68.72;37.28;;;;;;;;;;5007967;28;20025;-76
2023/04/09 02:56:31;;;;;;;65.85;39.08;;;;;;;;;;5014973;28;20049;-76
2023/04/09 02:58:57;;;;;;;67.00;38.63;;;;;;;;;;5038634;28;20030;-76
2023/04/09 03:01:23;;;;;;;69.90;37.75;;;;;;;;;;5028541;28;20033;-75
2023/04/09 03:03:50;;;;;;;66.80;37.85;;;;;;;;;;5028066;28;20068;-76
2023/04/09 03:06:17;;;;;;;63.55;36.42;;;;;;;;;;5037832;28;20026;-76
2023/04/09 03:08:43;;;;;;;68.32;37.65;;;;;;;;;;5023416;28;20040;-76
2023/04/09 03:11:09;;;;;;;63.75;35.67;;;;;;;;;;5037763;28;20057;-77
2023/04/09 03:13:35;;;;;;;67.43;37.90;;;;;;;;;;5032124;28;20056;-76
2023/04/09 03:16:01;;;;;;;64.65;36.03;;;;;;;;;;5036273;28;20485;-76
2023/04/09 03:18:27;;;;;;;69.70;36.88;;;;;;;;;;5020405;28;20042;-76
2023/04/09 03:20:53;;;;;;;68.20;38.60;;;;;;;;;;5035790;28;20021;-76
2023/04/09 03:23:19;;;;;;;66.88;36.13;;;;;;;;;;5040462;28;20107;-76
2023/04/09 03:25:45;;;;;;;65.93;38.08;;;;;;;;;;5038256;28;20482;-76
2023/04/09 03:28:12;;;;;;;62.58;35.97;;;;;;;;;;5022871;28;20056;-77
2023/04/09 03:30:38;;;;;;;64.00;37.65;;;;;;;;;;5030848;28;20072;-76
2023/04/09 03:33:04;;;;;;;64.78;36.47;;;;;;;;;;5041460;28;20059;-76
2023/04/09 03:35:30;;;;;;;63.58;35.63;;;;;;;;;;5043415;28;20025;-76
2023/04/09 03:37:56;;;;;;;66.57;36.90;;;;;;;;;;5028728;28;20048;-76
2023/04/09 03:40:22;;;;;;;62.97;34.95;;;;;;;;;;5019771;28;20087;-75
2023/04/09 03:42:48;;;;;;;57.03;33.40;;;;;;;;;;5039011;28;20025;-77
2023/04/09 03:45:14;;;;;;;66.80;32.92;;;;;;;;;;5041102;28;20475;-75
2023/04/09 03:47:40;;;;;;;56.60;33.30;;;;;;;;;;5038159;28;20167;-76
2023/04/09 03:50:06;;;;;;;61.40;32.88;;;;;;;;;;5019093;28;20090;-76
2023/04/09 03:52:32;;;;;;;58.17;33.20;;;;;;;;;;5035418;28;20025;-76
2023/04/09 03:54:59;;;;;;;57.67;31.75;;;;;;;;;;5042549;28;20464;-76
2023/04/09 03:57:25;;;;;;;47.97;29.17;;;;;;;;;;5033564;28;20041;-77
2023/04/09 03:59:51;;;;;;;52.58;31.02;;;;;;;;;;5036622;28;20059;-75
2023/04/09 04:02:17;;;;;;;55.22;31.80;;;;;;;;;;5036139;28;20029;-76
2023/04/09 04:04:43;;;;;;;52.75;29.10;;;;;;;;;;5036980;28;21048;-78
2023/04/09 04:07:09;;;;;;;50.03;29.88;;;;;;;;;;5027806;28;20029;-76
2023/04/09 04:09:38;;;;;;;60.15;32.08;;;;;;;;;;5036685;28;20117;-75
2023/04/09 04:12:04;;;;;;;46.10;28.73;;;;;;;;;;5026247;28;20148;-76
2023/04/09 04:14:30;;;;;;;50.25;30.00;;;;;;;;;;5030852;28;20037;-75
2023/04/09 04:16:56;;;;;;;50.17;29.40;;;;;;;;;;5025900;28;20106;-75
2023/04/09 04:19:22;;;;;;;49.13;29.60;;;;;;;;;;5027996;28;20134;-75
2023/04/09 04:21:48;;;;;;;52.75;28.30;;;;;;;;;;5013820;28;20026;-73
2023/04/09 04:24:14;;;;;;;52.22;31.13;;;;;;;;;;5030861;28;20041;-76
2023/04/09 04:26:40;;;;;;;62.13;34.10;;;;;;;;;;5029900;28;20132;-74
2023/04/09 04:29:07;;;;;;;53.42;32.47;;;;;;;;;;5030558;28;20577;-77
2023/04/09 04:31:36;;;;;;;53.67;31.90;;;;;;;;;;5014328;28;20116;-74
2023/04/09 04:34:02;;;;;;;50.58;28.90;;;;;;;;;;5034097;28;20320;-75
2023/04/09 04:36:46;;;;;;;49.53;29.67;;;;;;;;;;5031837;28;20044;-75
2023/04/09 04:39:13;;;;;;;45.42;27.80;;;;;;;;;;5011565;28;20136;-76
2023/04/09 04:41:39;;;;;;;54.53;28.77;;;;;;;;;;5038570;28;20032;-75
2023/04/09 04:44:05;;;;;;;47.63;29.27;;;;;;;;;;5012491;28;20060;-75
2023/04/09 04:46:31;;;;;;;46.72;27.40;;;;;;;;;;5012056;28;20082;-75
2023/04/09 04:49:00;;;;;;;45.50;26.85;;;;;;;;;;5028249;28;20105;-76
2023/04/09 04:51:33;;;;;;;46.10;27.08;;;;;;;;;;5019138;28;20021;-75
2023/04/09 04:53:59;;;;;;;42.60;26.63;;;;;;;;;;5026247;28;20402;-78
2023/04/09 04:56:25;;;;;;;39.92;25.65;;;;;;;;;;5033420;28;20068;-76
2023/04/09 04:58:51;;;;;;;40.53;25.25;;;;;;;;;;5020045;28;20075;-76
2023/04/09 05:01:17;;;;;;;39.80;25.85;;;;;;;;;;5036080;28;20025;-76
2023/04/09 05:03:43;;;;;;;41.75;24.67;;;;;;;;;;5023343;28;20047;-75
2023/04/09 05:06:11;;;;;;;45.08;25.85;;;;;;;;;;5029081;28;20033;-75
2023/04/09 05:08:40;;;;;;;45.33;24.90;;;;;;;;;;5017434;28;20033;-76
2023/04/09 05:11:24;;;;;;;44.50;26.55;;;;;;;;;;5030004;28;20502;-76
2023/04/09 05:13:50;;;;;;;45.05;25.92;;;;;;;;;;5033478;28;20040;-76
2023/04/09 05:16:22;;;;;;;50.60;28.17;;;;;;;;;;5033120;28;20038;-76
2023/04/09 05:18:48;;;;;;;;;;;8.50;99.90;;;;;;5013354;28;20059;-78
2023/04/09 05:21:17;;;;;;;44.22;26.25;;;;;;;;;;5037989;28;19916;-77
2023/04/09 05:23:43;;;;;;;45.10;29.33;;;;;;;;;;5011690;28;20030;-77
2023/04/09 05:26:12;;;;;;;45.38;28.02;;;;;;;;;;5026297;28;20458;-75
2023/04/09 05:28:38;;;;;;;48.63;26.40;;;;;;;;;;5020151;28;20037;-74
2023/04/09 05:31:06;;;;;;;42.45;25.65;;;;;;;;;;5022791;28;20044;-75
2023/04/09 05:33:36;;;;;;;44.20;27.45;;;;;;;;;;5006818;28;20024;-75
2023/04/09 05:36:03;;;;;;;45.20;28.20;;;;;;;;;;5003430;28;20076;-75
2023/04/09 05:38:29;;;;;;;42.30;27.52;;;;;;;;;;5023950;28;20037;-75
2023/04/09 05:41:00;;;;;;;48.00;28.45;;;;;;;;;;5032049;28;20466;-76
2023/04/09 05:43:26;;;;;;;43.40;26.20;;;;;;;;;;5010476;28;20536;-76
2023/04/09 05:45:52;;;;;;;40.17;26.38;;;;;;;;;;5029210;28;20030;-77
2023/04/09 05:48:22;;;;;;;42.25;25.88;;;;;;;;;;5009375;28;20037;-77
2023/04/09 05:50:51;;;;;;;40.65;25.90;;;;;;;;;;5028169;28;20049;-76
2023/04/09 05:53:34;;;;;;;;;;;;;;;;;;;;;
2023/04/09 05:59:29;;;;;;;40.70;24.77;;;;;;;;;;4956825;28;20074;-78
2023/04/09 06:02:25;;;;;;;42.92;24.67;;;;;;;;;;4959348;28;20034;-77
2023/04/09 06:04:51;;;;;;;43.85;25.58;;;;;;;;;;5007386;28;20040;-77
2023/04/09 06:07:17;;;;;;;58.00;37.50;;;;;;;;;;5023732;28;20033;-76
2023/04/09 06:09:45;;;;;;;48.08;30.73;;;;;;;;;;5040336;28;20066;-79
2023/04/09 06:12:12;;;;;;;49.72;30.25;;;;;;;;;;5012628;28;21888;-76
2023/04/09 06:14:38;;;;;;;40.97;26.63;;;;;;;;;;5028486;28;20025;-76
2023/04/09 06:17:04;;;;;;;40.60;25.75;;;;;;;;;;5020299;28;20025;-77
2023/04/09 06:19:33;;;;;;;45.20;27.13;;;;;;;;;;5025687;28;20037;-75
2023/04/09 06:21:59;;;;;;;41.63;27.27;;;;;;;;;;5009989;28;20474;-75
2023/04/09 06:24:25;;;;;;;42.97;25.98;;;;;;;;;;5038082;28;20075;-75
2023/04/09 06:26:51;;;;;;;42.85;26.05;;;;;;;;;;5045783;28;20053;-75
2023/04/09 06:29:17;;;;;;;42.63;25.77;;;;;;;;;;5024118;28;20032;-77
2023/04/09 06:31:43;;;;;;;45.10;29.20;;;;;;;;;;5020408;28;20418;-75
2023/04/09 06:34:10;;;;;;;42.40;27.98;;;;;;;;;;5009463;28;20056;-73
2023/04/09 06:36:36;;;;;;;40.75;26.80;;;;;;;;;;5035604;28;20675;-77
2023/04/09 06:39:02;;;;;;;42.53;28.27;;;;;;;;;;5030681;28;20074;-75
2023/04/09 06:41:29;;;;;;;45.90;29.15;;;;;;;;;;5023221;28;20030;-75
2023/04/09 06:43:55;;;;;;;45.42;28.20;;;;;;;;;;5017501;28;20044;-75
2023/04/09 06:46:24;;;;;;;45.15;28.13;;;;;;;;;;5047569;28;20025;-75
2023/04/09 06:48:50;;;;;;;49.55;30.65;;;;;;;;;;5023665;28;20037;-79
2023/04/09 06:51:17;;;;;;;46.13;27.58;;;;;;;;;;5010229;28;20494;-79
2023/04/09 06:53:43;;;;;;;45.13;29.67;;;;;;;;;;5022299;28;20029;-76
2023/04/09 06:56:09;;;;;;;42.30;27.15;;;;;;;;;;5024044;28;20079;-74
2023/04/09 06:58:35;;;;;;;47.03;28.85;;;;;;;;;;5024734;28;20053;-74
2023/04/09 07:01:02;;;;;;;43.85;28.42;;;;;;;;;;5026379;28;20029;-73
2023/04/09 07:03:28;;;;;;;46.35;29.05;;;;;;;;;;5024680;28;20083;-73
2023/04/09 07:05:55;;;;;;;44.22;27.52;;;;;;;;;;5041624;28;20103;-73
2023/04/09 07:08:22;;;;;;;49.63;29.17;;;;;;;;;;5041510;28;20037;-74
2023/04/09 07:10:48;;;;;;;54.25;33.78;;;;;;;;;;5028147;28;20044;-76
2023/04/09 07:13:15;;;;;;;57.88;35.33;;;;;;;;;;5022454;28;20052;-80
2023/04/09 07:15:41;;;;;;;54.88;33.08;;;;;;;;;;5022897;28;20547;-75
2023/04/09 07:18:07;;;;;;;50.63;31.05;;;;;;;;;;5024964;28;20029;-75
2023/04/09 07:20:33;;;;;;;48.95;30.55;;;;;;;;;;5027488;28;20128;-75
2023/04/09 07:22:59;;;;;;;52.03;30.67;;;;;;;;;;5031006;28;20028;-75
2023/04/09 07:25:25;;;;;;;47.40;29.05;;;;;;;;;;5017857;28;20048;-76
2023/04/09 07:27:51;;;;;;;49.72;31.10;;;;;;;;;;5031603;28;20493;-75
2023/04/09 07:30:18;;;;;;;45.40;28.65;;;;;;;;;;5032010;28;20025;-75
2023/04/09 07:32:44;;;;;;;48.20;30.02;;;;;;;;;;5028577;28;20030;-72
2023/04/09 07:35:10;;;;;;;44.08;28.67;;;;;;;;;;5026511;28;20067;-75
2023/04/09 07:37:36;;;;;;;47.67;28.40;;;;;;;;;;5033825;28;20385;-74
2023/04/09 07:40:02;;;;;;;46.75;27.98;;;;;;;;;;5038968;28;20787;-75
2023/04/09 07:42:29;;;;;;;48.28;29.25;;;;;;;;;;5029301;28;20042;-74
2023/04/09 07:44:55;;;;;;;48.80;31.13;;;;;;;;;;5035559;28;20028;-75
2023/04/09 07:47:22;;;;;;;48.83;29.98;;;;;;;;;;5050798;28;20033;-75
2023/04/09 07:49:48;;;;;;;49.35;29.50;;;;;;;;;;5033767;28;20033;-75
2023/04/09 07:52:14;;;;;;;44.15;28.38;;;;;;;;;;5037043;28;20029;-76
2023/04/09 07:54:40;;;;;;;41.90;28.08;;;;;;;;;;5036170;28;20033;-74
2023/04/09 07:57:07;;;;;;;44.15;28.33;;;;;;;;;;5035655;28;20047;-75
2023/04/09 07:59:36;;;;;;;43.15;28.60;;;;;;;;;;5025827;28;20141;-74
2023/04/09 08:02:02;;;;;;;43.78;28.17;;;;;;;;;;5021999;28;20032;-75
2023/04/09 08:04:28;;;;;;;46.60;28.45;;;;;;;;;;5033505;28;20033;-75
2023/04/09 08:06:54;;;;;;;43.67;27.77;;;;;;;;;;5052087;28;20033;-74
2023/04/09 08:09:21;;;;;;;44.45;27.13;;;;;;;;;;5038650;28;20033;-74
2023/04/09 08:11:47;;;;;;;43.78;27.00;;;;;;;;;;5029948;28;20386;-74
2023/04/09 08:14:14;;;;;;;44.33;27.08;;;;;;;;;;5032247;28;20112;-74
2023/04/09 08:16:42;;;;;;;41.97;26.73;;;;;;;;;;5042776;28;20049;-74
2023/04/09 08:19:08;;;;;;;43.75;27.65;;;;;;;;;;5032660;28;20036;-74
2023/04/09 08:21:37;;;;;;;42.80;28.55;;;;;;;;;;5034935;28;20021;-73
2023/04/09 08:24:04;;;;;;;39.88;25.73;;;;;;;;;;5033672;28;20025;-76
2023/04/09 08:26:30;;;;;;;47.78;27.80;;;;;;;;;;5039669;28;20017;-75
2023/04/09 08:28:56;;;;;;;50.53;31.67;;;;;;;;;;5035093;28;20090;-76
2023/04/09 08:31:22;;;;;;;43.30;27.48;;;;;;;;;;5029213;28;20052;-76
2023/04/09 08:33:50;;;;;;;52.30;31.13;;;;;;;;;;5032993;28;20025;-75
2023/04/09 08:36:16;;;;;;;44.17;26.58;;;;;;;;;;5034065;28;20480;-76
2023/04/09 08:38:43;;;;;;;41.50;26.77;;;;;;;;;;5034329;28;20033;-76
2023/04/09 08:41:16;;;;;;;43.10;26.50;;;;;;;;;;5018785;28;20067;-77
2023/04/09 08:43:42;;;;;;;45.72;27.73;;;;;;;;;;5021247;28;20029;-74
2023/04/09 08:46:09;;;;;;;41.00;25.48;;;;;;;;;;5049704;28;20501;-75
2023/04/09 08:48:36;;;;;;;41.25;26.17;;;;;;;;;;5050986;28;20477;-75
2023/04/09 08:51:02;;;;;;;43.40;26.25;;;;;;;;;;5020524;28;20033;-75
2023/04/09 08:53:28;;;;;;;39.75;26.13;;;;;;;;;;5034433;28;20112;-75
2023/04/09 08:55:56;;;;;;;40.58;26.75;;;;;;;;;;5033637;28;20089;-75
2023/04/09 08:58:22;;;;;;;39.67;26.48;;;;;;;;;;5033129;28;20389;-76
2023/04/09 09:00:48;;;;;;;41.08;27.75;;;;;;;;;;5032541;28;20056;-73
2023/04/09 09:03:14;;;;;;;41.78;27.13;;;;;;;;;;5026023;28;20078;-75
2023/04/09 09:05:40;;;;;;;35.08;24.85;;;;;;;;;;5018611;28;20038;-75
2023/04/09 09:08:07;;;;;;;36.45;25.25;;;;;;;;;;5016044;28;20060;-78
2023/04/09 09:10:39;;;;;;;42.70;26.17;;;;;;;;;;5024048;28;20091;-76
2023/04/09 09:13:25;;;;;;;43.57;27.90;;;;;;;;;;5019699;28;20044;-76
2023/04/09 09:15:55;;;;;;;41.10;26.75;;;;;;;;;;5040700;28;20403;-77
2023/04/09 09:18:21;;;;;;;42.25;27.08;;;;;;;;;;5022480;28;20408;-76
2023/04/09 09:20:47;;;;;;;40.83;26.05;;;;;;;;;;5025903;28;20107;-79
2023/04/09 09:23:14;;;;;;;38.60;26.35;;;;;;;;;;5025123;28;20036;-79
2023/04/09 09:25:41;;;;;;;40.08;27.27;;;;;;;;;;5021749;28;20048;-73
2023/04/09 09:28:11;;;;;;;41.45;27.27;;;;;;;;;;5012183;28;20038;-79
2023/04/09 09:30:38;;;;;;;40.53;26.15;;;;;;;;;;5030771;28;23735;-79
2023/04/09 09:33:07;;;;;;;37.30;25.65;;;;;;;;;;5021201;28;20482;-79
2023/04/09 09:35:47;;;;;;;39.15;26.10;;;;;;;;;;5029274;28;20033;-78
2023/04/09 09:38:14;;;;;;;39.13;26.35;;;;;;;;;;5021988;28;20058;-79
2023/04/09 09:40:40;;;;;;;36.40;24.42;;;;;;;;;;5017996;28;20108;-77
2023/04/09 09:43:07;;;;;;;41.13;26.45;;;;;;;;;;5020661;28;20260;-80
2023/04/09 09:45:33;;;;;;;42.72;25.65;;;;;;;;;;5034710;28;20033;-78
2023/04/09 09:48:00;;;;;;;37.97;25.92;;;;;;;;;;5023561;28;20056;-77
2023/04/09 09:50:29;;;;;;;35.10;24.13;;;;;;;;;;5023040;28;20055;-77
2023/04/09 09:53:02;;;;;;;37.03;22.92;;;;;;;;;;5038717;28;20094;-78
2023/04/09 09:55:29;;;;;;;;;;;10.70;99.90;;;;;;5022485;28;20098;-81
2023/04/09 09:57:56;;;;;;;37.83;25.45;;;;;;;;;;5020753;28;19909;-76
2023/04/09 10:00:24;;;;;;;40.15;25.92;;;;;;;;;;5003328;28;20064;-75
2023/04/09 10:02:58;;;;;;;37.85;26.40;;;;;;;;;;5039189;28;20020;-76
2023/04/09 10:05:26;;;;;;;36.20;24.92;;;;;;;;;;5010693;28;20033;-80
2023/04/09 10:08:00;;;;;;;34.83;22.38;;;;;;;;;;5008883;28;20029;-74
2023/04/09 10:10:30;;;;;;;34.75;22.60;;;;;;;;;;5033621;28;20276;-77
2023/04/09 10:12:56;;;;;;;35.05;24.77;;;;;;;;;;5020599;28;20090;-76
2023/04/09 10:15:25;;;;;;;38.60;25.50;;;;;;;;;;5023727;28;20021;-77
2023/04/09 10:17:51;;;;;;;32.92;24.10;;;;;;;;;;5024463;28;20535;-76
2023/04/09 10:20:40;;;;;;;32.20;22.73;;;;;;;;;;5021983;28;20421;-77
2023/04/09 10:23:09;;;;;;;31.67;23.23;;;;;;;;;;5020225;28;20036;-75
2023/04/09 10:25:35;;;;;;;29.77;21.45;;;;;;;;;;5039055;28;20091;-76
2023/04/09 10:28:02;;;;;;;31.73;21.83;;;;;;;;;;4996697;28;20033;-77
2023/04/09 10:30:36;;;;;;;29.10;21.90;;;;;;;;;;5016771;28;20580;-77
2023/04/09 10:33:12;;;;;;;33.72;23.45;;;;;;;;;;5013599;28;20041;-77
2023/04/09 10:35:38;;;;;;;32.92;22.17;;;;;;;;;;5022826;28;20060;-76
2023/04/09 10:38:08;;;;;;;27.88;21.17;;;;;;;;;;5018856;28;20025;-76
2023/04/09 10:40:35;;;;;;;37.95;26.88;;;;;;;;;;5022688;28;20049;-78
2023/04/09 10:43:02;;;;;;;28.77;20.45;;;;;;;;;;5016223;28;20025;-77
2023/04/09 10:45:39;;;;;;;29.83;21.10;;;;;;;;;;5016526;28;20034;-79
2023/04/09 10:48:06;;;;;;;28.10;20.52;;;;;;;;;;5014974;28;20040;-78
2023/04/09 10:50:34;;;;;;;30.30;20.90;;;;;;;;;;5006607;28;20565;-78
2023/04/09 10:53:03;;;;;;;26.95;20.67;;;;;;;;;;5022465;28;20452;-79
2023/04/09 10:55:39;;;;;;;27.98;20.55;;;;;;;;;;5021795;28;20075;-75
2023/04/09 10:58:06;;;;;;;28.42;20.55;;;;;;;;;;4998575;28;20741;-75
2023/04/09 11:00:42;;;;;;;30.27;20.20;;;;;;;;;;5033773;28;20040;-75
2023/04/09 11:03:09;;;;;;;28.33;21.10;;;;;;;;;;5019524;28;20080;-74
2023/04/09 11:05:39;;;;;;;28.00;20.38;;;;;;;;;;5021230;28;20040;-75
2023/04/09 11:08:09;;;;;;;24.98;20.33;;;;;;;;;;5018364;28;20029;-76
2023/04/09 11:10:36;;;;;;;28.55;20.45;;;;;;;;;;5025255;28;20127;-77
2023/04/09 11:13:02;;;;;;;27.20;20.60;;;;;;;;;;5037612;28;20033;-75
2023/04/09 11:15:28;;;;;;;26.50;20.30;;;;;;;;;;5006894;28;20030;-74
2023/04/09 11:17:56;;;;;;;24.48;19.48;;;;;;;;;;5019315;28;20484;-75
2023/04/09 11:20:23;;;;;;;26.98;19.58;;;;;;;;;;5028199;28;20041;-76
2023/04/09 11:22:50;;;;;;;26.90;20.58;;;;;;;;;;5041521;28;20033;-76
2023/04/09 11:25:30;;;;;;;28.98;21.45;;;;;;;;;;5026758;28;20028;-75
2023/04/09 11:27:56;;;;;;;27.45;20.42;;;;;;;;;;5024085;28;20044;-76
2023/04/09 11:30:22;;;;;;;29.50;20.90;;;;;;;;;;5042258;28;20052;-76
2023/04/09 11:32:49;;;;;;;26.90;19.98;;;;;;;;;;5025943;28;20029;-74
2023/04/09 11:35:16;;;;;;;25.70;20.42;;;;;;;;;;5025032;28;20126;-76
2023/04/09 11:37:42;;;;;;;29.00;21.23;;;;;;;;;;5043020;28;20083;-74
2023/04/09 11:40:16;;;;;;;28.83;21.38;;;;;;;;;;5024670;28;20041;-75
2023/04/09 11:42:43;;;;;;;26.83;19.55;;;;;;;;;;5041852;28;20033;-77
2023/04/09 11:45:10;;;;;;;25.27;19.60;;;;;;;;;;5023928;28;20374;-76
2023/04/09 11:47:36;;;;;;;29.27;20.23;;;;;;;;;;5027850;28;20029;-77
2023/04/09 11:50:03;;;;;;;114.60;76.05;;;;;;;;;;5034996;28;20358;-78
2023/04/09 11:52:30;;;;;;;28.58;20.70;;;;;;;;;;5027351;28;20037;-78
2023/04/09 11:55:03;;;;;;;26.80;19.98;;;;;;;;;;5019367;28;20017;-77
2023/04/09 11:57:46;;;;;;;26.05;20.00;;;;;;;;;;5039035;28;20375;-78
2023/04/09 12:00:16;;;;;;;24.67;19.25;;;;;;;;;;4994484;28;20053;-79
2023/04/09 12:02:45;;;;;;;28.00;19.50;;;;;;;;;;5002690;28;20120;-77
2023/04/09 12:05:20;;;;;;;26.90;18.98;;;;;;;;;;5022310;28;20584;-77
2023/04/09 12:07:46;;;;;;;28.55;20.77;;;;;;;;;;5035909;28;20041;-78
2023/04/09 12:10:13;;;;;;;27.45;20.13;;;;;;;;;;5032345;28;20036;-71
2023/04/09 12:12:40;;;;;;;26.95;19.80;;;;;;;;;;5013403;28;20052;-75
2023/04/09 12:15:20;;;;;;;24.30;18.55;;;;;;;;;;5013110;28;20037;-74
2023/04/09 12:17:47;;;;;;;22.70;17.60;;;;;;;;;;5010566;28;20466;-75
2023/04/09 12:20:14;;;;;;;30.17;20.48;;;;;;;;;;4988401;28;20398;-76
2023/04/09 12:22:40;;;;;;;24.58;17.80;;;;;;;;;;5022501;28;20034;-77
2023/04/09 12:25:07;;;;;;;22.90;17.58;;;;;;;;;;5013701;28;20033;-77
2023/04/09 12:27:33;;;;;;;25.15;18.90;;;;;;;;;;5026490;28;20331;-76
2023/04/09 12:29:59;;;;;;;24.40;17.95;;;;;;;;;;4999505;28;20072;-75
2023/04/09 12:32:27;;;;;;;26.58;18.98;;;;;;;;;;4997607;28;20037;-78
2023/04/09 12:34:53;;;;;;;27.40;18.83;;;;;;;;;;5026865;28;20036;-77
2023/04/09 12:37:19;;;;;;;29.27;19.20;;;;;;;;;;5042281;28;20187;-77
2023/04/09 12:39:45;;;;;;;24.52;18.02;;;;;;;;;;4997868;28;20034;-76
2023/04/09 12:42:11;;;;;;;26.27;19.13;;;;;;;;;;5026495;28;20106;-77
2023/04/09 12:44:38;;;;;;;22.98;18.05;;;;;;;;;;5009663;28;20044;-77
2023/04/09 12:47:04;;;;;;;23.45;17.83;;;;;;;;;;5019752;28;20584;-77
2023/04/09 12:49:30;;;;;;;26.45;19.02;;;;;;;;;;5022331;28;20111;-77
2023/04/09 12:51:56;;;;;;;22.92;17.80;;;;;;;;;;4994629;28;20057;-77
2023/04/09 12:54:22;;;;;;;23.67;16.70;;;;;;;;;;5011647;28;20025;-77
2023/04/09 12:56:48;;;;;;;22.40;16.83;;;;;;;;;;5019559;28;20029;-77
2023/04/09 12:59:15;;;;;;;24.10;18.42;;;;;;;;;;5003212;28;20046;-77
2023/04/09 13:01:41;;;;;;;26.98;19.67;;;;;;;;;;4992589;28;20148;-77
2023/04/09 13:04:07;;;;;;;28.98;20.35;;;;;;;;;;5004418;28;20158;-79
2023/04/09 13:06:33;;;;;;;28.13;20.20;;;;;;;;;;5004919;28;20165;-78
2023/04/09 13:08:59;;;;;;;24.48;18.30;;;;;;;;;;4997932;28;20442;-76
2023/04/09 13:11:25;;;;;;;24.35;17.38;;;;;;;;;;5013681;28;20487;-74
2023/04/09 13:13:51;;;;;;;24.65;17.52;;;;;;;;;;5007016;28;20064;-75
2023/04/09 13:16:17;;;;;;;26.13;16.90;;;;;;;;;;5018424;28;20036;-74
2023/04/09 13:18:43;;;;;;;23.33;16.85;;;;;;;;;;5030742;28;20039;-74
2023/04/09 13:21:09;;;;;;;23.05;16.95;;;;;;;;;;5009803;28;20041;-72
2023/04/09 13:23:36;;;;;;;24.55;18.52;;;;;;;;;;5008060;28;20056;-72
2023/04/09 13:26:03;;;;;;;21.00;16.40;;;;;;;;;;5009289;28;20128;-72
2023/04/09 13:28:29;;;;;;;24.58;16.70;;;;;;;;;;5013509;28;20072;-73
2023/04/09 13:30:55;;;;;;;20.33;16.40;;;;;;;;;;4990482;28;20403;-72
2023/04/09 13:33:21;;;;;;;23.08;17.17;;;;;;;;;;4988542;28;20117;-74
2023/04/09 13:35:47;;;;;;;29.45;22.65;;;;;;;;;;4996024;28;20457;-74
2023/04/09 13:38:13;;;;;;;18.90;15.70;;;;;;;;;;5007871;28;20034;-75
2023/04/09 13:40:40;;;;;;;23.20;16.33;;;;;;;;;;5025890;28;20030;-70
2023/04/09 13:43:06;;;;;;;20.70;15.77;;;;;;;;;;5029629;28;20121;-69
2023/04/09 13:45:32;;;;;;;18.90;15.45;;;;;;;;;;5030398;28;20030;-70
2023/04/09 13:47:58;;;;;;;19.80;15.10;;;;;;;;;;5002980;28;20034;-70
2023/04/09 13:50:25;;;;;;;17.48;13.85;;;;;;;;;;5018188;28;20509;-71
2023/04/09 13:52:51;;;;;;;18.70;14.23;;;;;;;;;;5013158;28;20037;-71
2023/04/09 13:55:17;;;;;;;18.73;13.77;;;;;;;;;;5007404;28;20077;-72
2023/04/09 13:57:44;;;;;;;17.73;13.85;;;;;;;;;;5011320;28;20072;-73
2023/04/09 14:00:10;;;;;;;17.63;13.45;;;;;;;;;;5021210;28;20056;-73
2023/04/09 14:02:36;;;;;;;17.52;13.80;;;;;;;;;;4992255;28;20030;-73
2023/04/09 14:05:02;;;;;;;18.27;14.18;;;;;;;;;;5000386;28;20034;-74
2023/04/09 14:07:29;;;;;;;18.15;13.15;;;;;;;;;;4985355;28;20409;-73
2023/04/09 14:09:55;;;;;;;16.15;13.25;;;;;;;;;;5005728;28;20114;-74
2023/04/09 14:12:21;;;;;;;20.83;16.83;;;;;;;;;;5008197;28;20037;-73
2023/04/09 14:14:48;;;;;;;18.45;13.75;;;;;;;;;;5027444;28;20029;-72
2023/04/09 14:17:15;;;;;;;18.70;14.45;;;;;;;;;;5014921;28;20029;-73
2023/04/09 14:19:41;;;;;;;16.42;13.05;;;;;;;;;;5002816;28;22514;-75
2023/04/09 14:22:07;;;;;;;16.80;12.65;;;;;;;;;;5003034;28;20033;-73
2023/04/09 14:24:38;;;;;;;18.65;13.93;;;;;;;;;;5007682;28;20120;-74